createdAt,value
2023-05-20T00:00:05.991Z,1013.70
2023-05-20T00:01:05.975Z,1013.71
2023-05-20T00:02:05.967Z,1013.74
2023-05-20T00:03:06.090Z,1013.76
2023-05-20T00:04:06.142Z,1013.74
2023-05-20T00:05:05.989Z,1013.75
2023-05-20T00:06:05.943Z,1013.76
2023-05-20T00:07:05.918Z,1013.73
2023-05-20T00:08:05.898Z,1013.78
2023-05-20T00:09:05.912Z,1013.75
2023-05-20T00:10:05.984Z,1013.72
2023-05-20T00:11:05.881Z,1013.72
2023-05-20T00:12:05.861Z,1013.72
2023-05-20T00:13:05.861Z,1013.70
2023-05-20T00:14:05.840Z,1013.68
2023-05-20T00:15:05.858Z,1013.67
2023-05-20T00:16:05.860Z,1013.68
2023-05-20T00:17:05.794Z,1013.71
2023-05-20T00:18:05.868Z,1013.70
2023-05-20T00:19:05.799Z,1013.66
2023-05-20T00:20:05.779Z,1013.70
2023-05-20T00:21:05.775Z,1013.66
2023-05-20T00:22:05.785Z,1013.61
2023-05-20T00:23:05.735Z,1013.62
2023-05-20T00:24:05.737Z,1013.65
2023-05-20T00:25:05.737Z,1013.62
2023-05-20T00:26:05.718Z,1013.62
2023-05-20T00:27:05.706Z,1013.62
2023-05-20T00:28:05.672Z,1013.60
2023-05-20T00:29:05.684Z,1013.60
2023-05-20T00:30:05.668Z,1013.62
2023-05-20T00:31:05.650Z,1013.62
2023-05-20T00:32:05.677Z,1013.63
2023-05-20T00:33:05.704Z,1013.65
2023-05-20T00:34:05.623Z,1013.61
2023-05-20T00:35:05.605Z,1013.59
2023-05-20T00:36:05.616Z,1013.62
2023-05-20T00:37:05.589Z,1013.62
2023-05-20T00:38:05.605Z,1013.60
2023-05-20T00:39:05.558Z,1013.54
2023-05-20T00:40:05.559Z,1013.59
2023-05-20T00:41:05.546Z,1013.52
2023-05-20T00:42:05.552Z,1013.51
2023-05-20T00:43:05.573Z,1013.57
2023-05-20T00:44:05.530Z,1013.56
2023-05-20T00:45:05.495Z,1013.53
2023-05-20T00:46:05.582Z,1013.59
2023-05-20T00:47:05.460Z,1013.56
2023-05-20T00:48:05.536Z,1013.56
2023-05-20T00:49:05.484Z,1013.55
2023-05-20T00:50:05.445Z,1013.59
2023-05-20T00:51:05.427Z,1013.60
2023-05-20T00:52:05.425Z,1013.61
2023-05-20T00:53:05.407Z,1013.62
2023-05-20T00:54:05.403Z,1013.62
2023-05-20T00:55:05.391Z,1013.66
2023-05-20T00:56:05.378Z,1013.65
2023-05-20T00:57:05.385Z,1013.65
2023-05-20T00:58:05.349Z,1013.62
2023-05-20T00:59:05.359Z,1013.57
2023-05-20T01:00:05.321Z,1013.59
2023-05-20T01:01:05.362Z,1013.60
2023-05-20T01:02:05.355Z,1013.56
2023-05-20T01:03:05.380Z,1013.57
2023-05-20T01:04:05.284Z,1013.56
2023-05-20T01:05:05.265Z,1013.54
2023-05-20T01:06:05.272Z,1013.50
2023-05-20T01:07:05.244Z,1013.50
2023-05-20T01:08:05.227Z,1013.52
2023-05-20T01:09:05.229Z,1013.49
2023-05-20T01:10:05.242Z,1013.47
2023-05-20T01:11:05.223Z,1013.47
2023-05-20T01:12:05.173Z,1013.50
2023-05-20T01:13:05.192Z,1013.49
2023-05-20T01:14:05.166Z,1013.50
2023-05-20T01:15:05.193Z,1013.49
2023-05-20T01:16:05.207Z,1013.48
2023-05-20T01:17:05.117Z,1013.44
2023-05-20T01:18:05.161Z,1013.43
2023-05-20T01:19:05.177Z,1013.48
2023-05-20T01:20:05.126Z,1013.50
2023-05-20T01:21:05.095Z,1013.43
2023-05-20T01:22:05.074Z,1013.50
2023-05-20T01:23:05.067Z,1013.51
2023-05-20T01:24:05.056Z,1013.48
2023-05-20T01:25:05.033Z,1013.46
2023-05-20T01:26:05.085Z,1013.43
2023-05-20T01:27:05.036Z,1013.48
2023-05-20T01:28:05.003Z,1013.46
2023-05-20T01:29:04.995Z,1013.43
2023-05-20T01:30:04.988Z,1013.38
2023-05-20T01:31:05.029Z,1013.37
2023-05-20T01:32:04.972Z,1013.34
2023-05-20T01:33:05.224Z,1013.34
2023-05-20T01:34:04.947Z,1013.37
2023-05-20T01:35:04.973Z,1013.35
2023-05-20T01:36:04.913Z,1013.33
2023-05-20T01:37:04.917Z,1013.32
2023-05-20T01:38:04.888Z,1013.33
2023-05-20T01:39:04.911Z,1013.37
2023-05-20T01:40:04.882Z,1013.35
2023-05-20T01:41:04.867Z,1013.33
2023-05-20T01:42:04.865Z,1013.34
2023-05-20T01:43:04.839Z,1013.36
2023-05-20T01:44:04.822Z,1013.34
2023-05-20T01:45:04.841Z,1013.36
2023-05-20T01:46:04.843Z,1013.33
2023-05-20T01:47:04.889Z,1013.34
2023-05-20T01:48:04.822Z,1013.39
2023-05-20T01:49:04.781Z,1013.37
2023-05-20T01:50:04.765Z,1013.39
2023-05-20T01:51:04.770Z,1013.34
2023-05-20T01:52:04.762Z,1013.33
2023-05-20T01:53:04.730Z,1013.31
2023-05-20T01:54:04.718Z,1013.27
2023-05-20T01:55:04.716Z,1013.30
2023-05-20T01:56:04.707Z,1013.31
2023-05-20T01:57:04.672Z,1013.30
2023-05-20T01:58:04.687Z,1013.28
2023-05-20T01:59:04.682Z,1013.27
2023-05-20T02:00:04.667Z,1013.24
2023-05-20T02:01:04.683Z,1013.28
2023-05-20T02:02:04.670Z,1013.24
2023-05-20T02:03:04.639Z,1013.30
2023-05-20T02:04:04.595Z,1013.26
2023-05-20T02:05:04.593Z,1013.29
2023-05-20T02:06:04.687Z,1013.28
2023-05-20T02:07:04.582Z,1013.27
2023-05-20T02:08:04.564Z,1013.29
2023-05-20T02:09:04.546Z,1013.30
2023-05-20T02:10:04.562Z,1013.24
2023-05-20T02:11:04.532Z,1013.24
2023-05-20T02:12:04.523Z,1013.26
2023-05-20T02:13:04.499Z,1013.25
2023-05-20T02:14:04.542Z,1013.19
2023-05-20T02:15:04.479Z,1013.27
2023-05-20T02:16:04.525Z,1013.25
2023-05-20T02:17:04.460Z,1013.25
2023-05-20T02:18:04.510Z,1013.26
2023-05-20T02:19:04.519Z,1013.27
2023-05-20T02:20:04.435Z,1013.27
2023-05-20T02:21:04.432Z,1013.23
2023-05-20T02:22:04.424Z,1013.28
2023-05-20T02:23:04.402Z,1013.27
2023-05-20T02:24:04.395Z,1013.25
2023-05-20T02:25:04.377Z,1013.24
2023-05-20T02:26:04.384Z,1013.23
2023-05-20T02:27:04.350Z,1013.18
2023-05-20T02:28:04.352Z,1013.22
2023-05-20T02:29:04.333Z,1013.20
2023-05-20T02:30:04.345Z,1013.17
2023-05-20T02:31:04.357Z,1013.22
2023-05-20T02:32:04.288Z,1013.20
2023-05-20T02:33:04.309Z,1013.23
2023-05-20T02:34:04.357Z,1013.22
2023-05-20T02:35:04.265Z,1013.23
2023-05-20T02:36:04.255Z,1013.24
2023-05-20T02:37:04.250Z,1013.19
2023-05-20T02:38:04.249Z,1013.20
2023-05-20T02:39:04.217Z,1013.19
2023-05-20T02:40:04.209Z,1013.19
2023-05-20T02:41:04.219Z,1013.21
2023-05-20T02:42:04.184Z,1013.21
2023-05-20T02:43:04.184Z,1013.16
2023-05-20T02:44:04.168Z,1013.20
2023-05-20T02:45:04.177Z,1013.17
2023-05-20T02:46:04.196Z,1013.17
2023-05-20T02:47:04.132Z,1013.16
2023-05-20T02:48:04.149Z,1013.13
2023-05-20T02:49:04.117Z,1013.16
2023-05-20T02:50:04.092Z,1013.16
2023-05-20T02:51:04.104Z,1013.16
2023-05-20T02:52:04.092Z,1013.22
2023-05-20T02:53:04.058Z,1013.18
2023-05-20T02:54:04.050Z,1013.17
2023-05-20T02:55:04.050Z,1013.15
2023-05-20T02:56:04.025Z,1013.14
2023-05-20T02:57:04.033Z,1013.15
2023-05-20T02:58:04.044Z,1013.20
2023-05-20T02:59:04.003Z,1013.12
2023-05-20T03:00:03.996Z,1013.18
2023-05-20T03:01:04.020Z,1013.15
2023-05-20T03:02:03.987Z,1013.14
2023-05-20T03:03:03.976Z,1013.17
2023-05-20T03:04:04.040Z,1013.14
2023-05-20T03:05:03.925Z,1013.19
2023-05-20T03:06:03.908Z,1013.18
2023-05-20T03:07:03.907Z,1013.16
2023-05-20T03:08:03.890Z,1013.15
2023-05-20T03:09:03.891Z,1013.15
2023-05-20T03:10:03.890Z,1013.13
2023-05-20T03:11:04.971Z,1013.14
2023-05-20T03:12:03.841Z,1013.12
2023-05-20T03:13:03.849Z,1013.11
2023-05-20T03:14:03.822Z,1013.09
2023-05-20T03:15:03.949Z,1013.10
2023-05-20T03:16:03.869Z,1013.08
2023-05-20T03:17:03.786Z,1013.10
2023-05-20T03:18:03.871Z,1013.11
2023-05-20T03:19:03.821Z,1013.11
2023-05-20T03:20:03.769Z,1013.05
2023-05-20T03:21:03.751Z,1013.05
2023-05-20T03:22:03.754Z,1013.06
2023-05-20T03:23:03.744Z,1013.06
2023-05-20T03:24:03.738Z,1013.06
2023-05-20T03:25:03.712Z,1013.10
2023-05-20T03:26:03.710Z,1013.07
2023-05-20T03:27:03.691Z,1013.13
2023-05-20T03:28:03.689Z,1013.14
2023-05-20T03:29:03.656Z,1013.13
2023-05-20T03:30:03.645Z,1013.08
2023-05-20T03:31:03.711Z,1013.15
2023-05-20T03:32:03.621Z,1013.13
2023-05-20T03:33:03.694Z,1013.15
2023-05-20T03:34:03.630Z,1013.16
2023-05-20T03:35:03.602Z,1013.15
2023-05-20T03:36:03.577Z,1013.10
2023-05-20T03:37:03.575Z,1013.13
2023-05-20T03:38:03.562Z,1013.10
2023-05-20T03:39:03.558Z,1013.10
2023-05-20T03:40:03.551Z,1013.06
2023-05-20T03:41:03.538Z,1013.09
2023-05-20T03:42:03.512Z,1013.12
2023-05-20T03:43:03.512Z,1013.13
2023-05-20T03:44:03.499Z,1013.15
2023-05-20T03:45:03.496Z,1013.13
2023-05-20T03:46:03.470Z,1013.15
2023-05-20T03:47:03.584Z,1013.20
2023-05-20T03:48:03.609Z,1013.16
2023-05-20T03:49:03.445Z,1013.12
2023-05-20T03:50:03.467Z,1013.14
2023-05-20T03:51:03.425Z,1013.11
2023-05-20T03:52:03.408Z,1013.12
2023-05-20T03:53:03.400Z,1013.08
2023-05-20T03:54:03.400Z,1013.12
2023-05-20T03:55:03.380Z,1013.08
2023-05-20T03:56:03.352Z,1013.11
2023-05-20T03:57:03.351Z,1013.08
2023-05-20T03:58:03.348Z,1013.10
2023-05-20T03:59:03.332Z,1013.05
2023-05-20T04:00:03.318Z,1013.07
2023-05-20T04:01:03.302Z,1013.02
2023-05-20T04:02:03.326Z,1013.06
2023-05-20T04:03:03.448Z,1013.05
2023-05-20T04:04:03.353Z,1013.04
2023-05-20T04:05:03.279Z,1013.04
2023-05-20T04:06:03.286Z,1013.03
2023-05-20T04:07:03.256Z,1012.98
2023-05-20T04:08:03.240Z,1013.00
2023-05-20T04:09:03.210Z,1012.96
2023-05-20T04:10:03.208Z,1012.99
2023-05-20T04:11:03.218Z,1012.94
2023-05-20T04:12:03.200Z,1012.97
2023-05-20T04:13:03.168Z,1013.03
2023-05-20T04:14:03.179Z,1013.02
2023-05-20T04:15:03.160Z,1013.07
2023-05-20T04:16:03.149Z,1013.09
2023-05-20T04:17:03.176Z,1013.10
2023-05-20T04:18:03.210Z,1013.13
2023-05-20T04:19:03.148Z,1013.09
2023-05-20T04:20:03.083Z,1013.13
2023-05-20T04:21:03.098Z,1013.13
2023-05-20T04:22:03.102Z,1013.10
2023-05-20T04:23:03.074Z,1013.12
2023-05-20T04:24:03.040Z,1013.12
2023-05-20T04:25:03.063Z,1013.12
2023-05-20T04:26:03.028Z,1013.14
2023-05-20T04:27:03.038Z,1013.10
2023-05-20T04:28:03.009Z,1013.13
2023-05-20T04:29:03.006Z,1013.15
2023-05-20T04:30:02.987Z,1013.14
2023-05-20T04:31:02.981Z,1013.07
2023-05-20T04:32:03.014Z,1013.15
2023-05-20T04:33:02.976Z,1013.11
2023-05-20T04:34:02.946Z,1013.11
2023-05-20T04:35:02.921Z,1013.14
2023-05-20T04:36:02.936Z,1013.10
2023-05-20T04:37:02.920Z,1013.10
2023-05-20T04:38:02.917Z,1013.13
2023-05-20T04:39:02.893Z,1013.09
2023-05-20T04:40:02.887Z,1013.12
2023-05-20T04:41:02.866Z,1013.17
2023-05-20T04:42:02.848Z,1013.13
2023-05-20T04:43:02.845Z,1013.14
2023-05-20T04:44:02.842Z,1013.15
2023-05-20T04:45:02.836Z,1013.12
2023-05-20T04:46:02.828Z,1013.13
2023-05-20T04:47:02.804Z,1013.13
2023-05-20T04:48:02.805Z,1013.03
2023-05-20T04:49:02.791Z,1013.05
2023-05-20T04:50:02.760Z,1013.06
2023-05-20T04:51:02.761Z,1013.12
2023-05-20T04:52:02.791Z,1013.13
2023-05-20T04:53:02.741Z,1013.12
2023-05-20T04:54:02.760Z,1013.12
2023-05-20T04:55:02.698Z,1013.11
2023-05-20T04:56:02.706Z,1013.12
2023-05-20T04:57:02.694Z,1013.06
2023-05-20T04:58:02.692Z,1013.06
2023-05-20T04:59:02.651Z,1013.04
2023-05-20T05:00:02.680Z,1013.03
2023-05-20T05:01:02.864Z,1012.97
2023-05-20T05:02:02.660Z,1013.03
2023-05-20T05:03:02.705Z,1013.04
2023-05-20T05:04:02.625Z,1013.02
2023-05-20T05:05:02.703Z,1012.97
2023-05-20T05:06:02.579Z,1013.01
2023-05-20T05:07:02.596Z,1013.00
2023-05-20T05:08:02.576Z,1013.01
2023-05-20T05:09:02.573Z,1013.02
2023-05-20T05:10:02.628Z,1013.03
2023-05-20T05:11:02.553Z,1013.02
2023-05-20T05:12:02.590Z,1013.02
2023-05-20T05:13:02.531Z,1012.97
2023-05-20T05:14:02.512Z,1012.96
2023-05-20T05:15:02.518Z,1012.89
2023-05-20T05:16:02.568Z,1012.89
2023-05-20T05:17:02.486Z,1012.92
2023-05-20T05:18:02.479Z,1012.90
2023-05-20T05:19:10.311Z,1012.89
2023-05-20T05:20:02.468Z,1012.87
2023-05-20T05:21:02.469Z,1012.86
2023-05-20T05:22:02.438Z,1012.89
2023-05-20T05:23:02.444Z,1012.83
2023-05-20T05:24:02.411Z,1012.88
2023-05-20T05:25:02.393Z,1012.85
2023-05-20T05:26:02.455Z,1012.80
2023-05-20T05:27:02.395Z,1012.80
2023-05-20T05:28:02.348Z,1012.76
2023-05-20T05:29:02.370Z,1012.77
2023-05-20T05:30:02.332Z,1012.75
2023-05-20T05:31:02.378Z,1012.76
2023-05-20T05:32:02.379Z,1012.81
2023-05-20T05:33:02.387Z,1012.77
2023-05-20T05:34:02.266Z,1012.79
2023-05-20T05:35:02.299Z,1012.82
2023-05-20T05:36:02.265Z,1012.84
2023-05-20T05:37:02.249Z,1012.82
2023-05-20T05:38:02.229Z,1012.80
2023-05-20T05:39:02.212Z,1012.78
2023-05-20T05:40:02.226Z,1012.83
2023-05-20T05:41:02.230Z,1012.82
2023-05-20T05:42:02.228Z,1012.78
2023-05-20T05:43:02.180Z,1012.76
2023-05-20T05:44:02.163Z,1012.80
2023-05-20T05:45:02.152Z,1012.78
2023-05-20T05:46:02.131Z,1012.75
2023-05-20T05:47:02.282Z,1012.79
2023-05-20T05:48:02.159Z,1012.83
2023-05-20T05:49:02.105Z,1012.78
2023-05-20T05:50:02.121Z,1012.78
2023-05-20T05:51:02.106Z,1012.73
2023-05-20T05:52:02.069Z,1012.72
2023-05-20T05:53:02.103Z,1012.73
2023-05-20T05:54:02.047Z,1012.74
2023-05-20T05:55:02.035Z,1012.67
2023-05-20T05:56:02.033Z,1012.70
2023-05-20T05:57:02.022Z,1012.69
2023-05-20T05:58:02.462Z,1012.65
2023-05-20T05:59:01.984Z,1012.66
2023-05-20T06:00:01.992Z,1012.57
2023-05-20T06:01:02.070Z,1012.58
2023-05-20T06:02:01.976Z,1012.63
2023-05-20T06:03:02.005Z,1012.64
2023-05-20T06:04:02.025Z,1012.64
2023-05-20T06:05:01.922Z,1012.66
2023-05-20T06:06:01.912Z,1012.65
2023-05-20T06:07:01.909Z,1012.65
2023-05-20T06:08:01.949Z,1012.68
2023-05-20T06:09:01.891Z,1012.64
2023-05-20T06:10:01.907Z,1012.66
2023-05-20T06:11:01.862Z,1012.66
2023-05-20T06:12:01.838Z,1012.64
2023-05-20T06:13:01.837Z,1012.63
2023-05-20T06:14:01.873Z,1012.67
2023-05-20T06:15:01.837Z,1012.62
2023-05-20T06:16:01.845Z,1012.62
2023-05-20T06:17:01.843Z,1012.65
2023-05-20T06:18:01.825Z,1012.64
2023-05-20T06:19:03.720Z,1012.65
2023-05-20T06:20:01.776Z,1012.62
2023-05-20T06:21:01.754Z,1012.64
2023-05-20T06:22:01.769Z,1012.65
2023-05-20T06:23:01.736Z,1012.66
2023-05-20T06:24:01.709Z,1012.61
2023-05-20T06:25:01.744Z,1012.59
2023-05-20T06:26:01.694Z,1012.62
2023-05-20T06:27:01.676Z,1012.60
2023-05-20T06:28:01.653Z,1012.54
2023-05-20T06:29:01.647Z,1012.53
2023-05-20T06:30:01.655Z,1012.53
2023-05-20T06:31:01.690Z,1012.57
2023-05-20T06:32:01.612Z,1012.58
2023-05-20T06:33:01.663Z,1012.60
2023-05-20T06:34:01.588Z,1012.57
2023-05-20T06:35:01.589Z,1012.56
2023-05-20T06:36:01.653Z,1012.56
2023-05-20T06:37:01.558Z,1012.55
2023-05-20T06:38:01.607Z,1012.58
2023-05-20T06:39:01.537Z,1012.61
2023-05-20T06:40:01.529Z,1012.57
2023-05-20T06:41:01.516Z,1012.59
2023-05-20T06:42:01.537Z,1012.54
2023-05-20T06:43:01.502Z,1012.58
2023-05-20T06:44:01.526Z,1012.56
2023-05-20T06:45:01.482Z,1012.48
2023-05-20T06:46:01.974Z,1012.45
2023-05-20T06:47:01.457Z,1012.46
2023-05-20T06:48:01.485Z,1012.44
2023-05-20T06:49:01.435Z,1012.46
2023-05-20T06:50:01.416Z,1012.42
2023-05-20T06:51:01.396Z,1012.38
2023-05-20T06:52:01.415Z,1012.40
2023-05-20T06:53:01.384Z,1012.40
2023-05-20T06:54:01.389Z,1012.39
2023-05-20T06:55:01.365Z,1012.41
2023-05-20T06:56:01.357Z,1012.36
2023-05-20T06:57:01.322Z,1012.38
2023-05-20T06:58:01.387Z,1012.39
2023-05-20T06:59:01.336Z,1012.35
2023-05-20T07:00:01.300Z,1012.37
2023-05-20T07:01:01.304Z,1012.35
2023-05-20T07:02:01.368Z,1012.35
2023-05-20T07:03:01.326Z,1012.36
2023-05-20T07:04:01.297Z,1012.38
2023-05-20T07:05:01.276Z,1012.31
2023-05-20T07:06:01.259Z,1012.35
2023-05-20T07:07:01.218Z,1012.32
2023-05-20T07:08:01.248Z,1012.31
2023-05-20T07:09:01.219Z,1012.31
2023-05-20T07:10:01.198Z,1012.26
2023-05-20T07:11:01.197Z,1012.25
2023-05-20T07:12:01.164Z,1012.24
2023-05-20T07:13:01.198Z,1012.32
2023-05-20T07:14:01.165Z,1012.29
2023-05-20T07:15:01.131Z,1012.25
2023-05-20T07:16:01.181Z,1012.22
2023-05-20T07:17:01.118Z,1012.22
2023-05-20T07:18:01.158Z,1012.23
2023-05-20T07:19:01.109Z,1012.23
2023-05-20T07:20:01.077Z,1012.18
2023-05-20T07:21:01.044Z,1012.19
2023-05-20T07:22:01.049Z,1012.20
2023-05-20T07:23:01.042Z,1012.20
2023-05-20T07:24:01.037Z,1012.18
2023-05-20T07:25:01.027Z,1012.18
2023-05-20T07:26:01.019Z,1012.16
2023-05-20T07:27:00.990Z,1012.13
2023-05-20T07:28:01.007Z,1012.11
2023-05-20T07:29:00.974Z,1012.12
2023-05-20T07:30:01.005Z,1012.03
2023-05-20T07:31:00.968Z,1012.07
2023-05-20T07:32:01.066Z,1012.09
2023-05-20T07:33:00.953Z,1012.13
2023-05-20T07:34:00.949Z,1012.04
2023-05-20T07:35:00.916Z,1012.06
2023-05-20T07:36:00.902Z,1012.05
2023-05-20T07:37:00.895Z,1012.11
2023-05-20T07:38:00.859Z,1012.07
2023-05-20T07:39:04.747Z,1011.99
2023-05-20T07:40:01.859Z,1012.02
2023-05-20T07:41:00.841Z,1012.00
2023-05-20T07:42:00.833Z,1011.97
2023-05-20T07:43:00.797Z,1011.97
2023-05-20T07:44:00.856Z,1011.95
2023-05-20T07:45:00.828Z,1011.94
2023-05-20T07:46:00.854Z,1011.98
2023-05-20T07:47:00.790Z,1011.97
2023-05-20T07:48:00.797Z,1011.91
2023-05-20T07:49:00.824Z,1011.94
2023-05-20T07:50:00.749Z,1011.92
2023-05-20T07:51:00.737Z,1011.95
2023-05-20T07:52:02.865Z,1011.95
2023-05-20T07:53:00.694Z,1011.97
2023-05-20T07:54:00.727Z,1011.93
2023-05-20T07:55:00.713Z,1011.91
2023-05-20T07:56:00.686Z,1011.92
2023-05-20T07:57:00.657Z,1011.85
2023-05-20T07:58:00.653Z,1011.84
2023-05-20T07:59:00.767Z,1011.84
2023-05-20T08:00:00.623Z,1011.78
2023-05-20T08:01:00.657Z,1011.80
2023-05-20T08:02:00.619Z,1011.81
2023-05-20T08:03:00.744Z,1011.79
2023-05-20T08:04:00.769Z,1011.79
2023-05-20T08:05:00.603Z,1011.78
2023-05-20T08:06:00.604Z,1011.78
2023-05-20T08:07:00.563Z,1011.77
2023-05-20T08:08:00.527Z,1011.83
2023-05-20T08:09:00.532Z,1011.76
2023-05-20T08:10:00.546Z,1011.79
2023-05-20T08:11:00.513Z,1011.76
2023-05-20T08:12:00.477Z,1011.75
2023-05-20T08:13:00.469Z,1011.77
2023-05-20T08:14:00.464Z,1011.79
2023-05-20T08:15:00.470Z,1011.81
2023-05-20T08:16:00.451Z,1011.86
2023-05-20T08:17:00.496Z,1011.87
2023-05-20T08:18:00.503Z,1011.89
2023-05-20T08:19:00.573Z,1011.92
2023-05-20T08:20:00.413Z,1011.90
2023-05-20T08:21:00.416Z,1011.81
2023-05-20T08:22:00.388Z,1011.77
2023-05-20T08:23:00.381Z,1011.81
2023-05-20T08:24:00.382Z,1011.78
2023-05-20T08:25:00.345Z,1011.79
2023-05-20T08:26:00.320Z,1011.82
2023-05-20T08:27:00.321Z,1011.78
2023-05-20T08:28:00.293Z,1011.79
2023-05-20T08:29:00.301Z,1011.71
2023-05-20T08:30:00.946Z,1011.77
2023-05-20T08:31:00.312Z,1011.68
2023-05-20T08:32:00.262Z,1011.69
2023-05-20T08:33:00.326Z,1011.73
2023-05-20T08:34:00.240Z,1011.75
2023-05-20T08:35:00.236Z,1011.73
2023-05-20T08:36:00.216Z,1011.71
2023-05-20T08:37:00.202Z,1011.63
2023-05-20T08:38:00.230Z,1011.76
2023-05-20T08:39:00.196Z,1011.68
2023-05-20T08:40:00.173Z,1011.71
2023-05-20T08:41:01.860Z,1011.69
2023-05-20T08:42:00.163Z,1011.70
2023-05-20T08:43:00.183Z,1011.68
2023-05-20T08:44:00.153Z,1011.67
2023-05-20T08:45:00.189Z,1011.66
2023-05-20T08:46:00.174Z,1011.70
2023-05-20T08:47:00.143Z,1011.67
2023-05-20T08:48:00.144Z,1011.58
2023-05-20T08:49:00.125Z,1011.63
2023-05-20T08:50:00.082Z,1011.63
2023-05-20T08:51:00.068Z,1011.63
2023-05-20T08:52:00.050Z,1011.54
2023-05-20T08:53:00.045Z,1011.58
2023-05-20T08:54:00.062Z,1011.53
2023-05-20T08:55:00.034Z,1011.53
2023-05-20T08:56:01.464Z,1011.55
2023-05-20T08:56:59.982Z,1011.54
2023-05-20T08:57:59.991Z,1011.55
2023-05-20T08:58:59.970Z,1011.55
2023-05-20T08:59:59.972Z,1011.55
2023-05-20T09:00:59.958Z,1011.46
2023-05-20T09:01:59.974Z,1011.51
2023-05-20T09:03:00.993Z,1011.50
2023-05-20T09:03:59.909Z,1011.47
2023-05-20T09:04:59.951Z,1011.51
2023-05-20T09:05:59.904Z,1011.50
2023-05-20T09:06:59.902Z,1011.50
2023-05-20T09:07:59.867Z,1011.49
2023-05-20T09:08:59.872Z,1011.49
2023-05-20T09:09:59.883Z,1011.40
2023-05-20T09:10:59.834Z,1011.43
2023-05-20T09:11:59.825Z,1011.45
2023-05-20T09:12:59.803Z,1011.43
2023-05-20T09:13:59.812Z,1011.48
2023-05-20T09:14:59.826Z,1011.40
2023-05-20T09:15:59.952Z,1011.43
2023-05-20T09:16:59.784Z,1011.40
2023-05-20T09:17:59.798Z,1011.34
2023-05-20T09:18:59.833Z,1011.32
2023-05-20T09:19:59.759Z,1011.29
2023-05-20T09:20:59.747Z,1011.28
2023-05-20T09:21:59.709Z,1011.22
2023-05-20T09:22:59.689Z,1011.25
2023-05-20T09:23:59.691Z,1011.33
2023-05-20T09:24:59.720Z,1011.36
2023-05-20T09:25:59.718Z,1011.28
2023-05-20T09:26:59.651Z,1011.40
2023-05-20T09:27:59.619Z,1011.29
2023-05-20T09:28:59.622Z,1011.23
2023-05-20T09:29:59.628Z,1011.31
2023-05-20T09:30:59.644Z,1011.25
2023-05-20T09:31:59.676Z,1011.29
2023-05-20T09:32:59.610Z,1011.26
2023-05-20T09:33:59.586Z,1011.24
2023-05-20T09:34:59.587Z,1011.25
2023-05-20T09:35:59.577Z,1011.23
2023-05-20T09:36:59.549Z,1011.22
2023-05-20T09:37:59.534Z,1011.21
2023-05-20T09:38:59.556Z,1011.22
2023-05-20T09:39:59.516Z,1011.30
2023-05-20T09:40:59.509Z,1011.25
2023-05-20T09:41:59.997Z,1011.25
2023-05-20T09:42:59.454Z,1011.33
2023-05-20T09:43:59.497Z,1011.31
2023-05-20T09:44:59.485Z,1011.34
2023-05-20T09:45:59.481Z,1011.36
2023-05-20T09:46:59.406Z,1011.30
2023-05-20T09:47:59.424Z,1011.31
2023-05-20T09:48:59.445Z,1011.27
2023-05-20T09:49:59.400Z,1011.24
2023-05-20T09:50:59.393Z,1011.33
2023-05-20T09:51:59.363Z,1011.30
2023-05-20T09:52:59.353Z,1011.30
2023-05-20T09:53:59.363Z,1011.30
2023-05-20T09:54:59.351Z,1011.28
2023-05-20T09:55:59.331Z,1011.28
2023-05-20T09:56:59.312Z,1011.24
2023-05-20T09:57:59.330Z,1011.27
2023-05-20T09:58:59.313Z,1011.29
2023-05-20T09:59:59.294Z,1011.26
2023-05-20T10:00:59.367Z,1011.35
2023-05-20T10:01:59.351Z,1011.34
2023-05-20T10:02:59.332Z,1011.32
2023-05-20T10:03:59.272Z,1011.29
2023-05-20T10:04:59.236Z,1011.31
2023-05-20T10:05:59.223Z,1011.27
2023-05-20T10:06:59.205Z,1011.31
2023-05-20T10:07:59.188Z,1011.31
2023-05-20T10:08:59.242Z,1011.32
2023-05-20T10:09:59.186Z,1011.31
2023-05-20T10:10:59.164Z,1011.33
2023-05-20T10:11:59.165Z,1011.31
2023-05-20T10:12:59.161Z,1011.19
2023-05-20T10:13:59.153Z,1011.24
2023-05-20T10:14:59.130Z,1011.15
2023-05-20T10:15:59.124Z,1011.28
2023-05-20T10:16:59.093Z,1011.21
2023-05-20T10:17:59.150Z,1011.26
2023-05-20T10:18:59.125Z,1011.19
2023-05-20T10:19:59.097Z,1011.17
2023-05-20T10:20:59.046Z,1011.17
2023-05-20T10:21:59.053Z,1011.21
2023-05-20T10:22:59.059Z,1011.16
2023-05-20T10:24:00.443Z,1011.16
2023-05-20T10:24:59.013Z,1011.14
2023-05-20T10:25:59.028Z,1011.16
2023-05-20T10:26:58.975Z,1011.09
2023-05-20T10:27:59.003Z,1011.10
2023-05-20T10:28:58.957Z,1011.12
2023-05-20T10:29:58.980Z,1011.08
2023-05-20T10:30:58.965Z,1011.11
2023-05-20T10:31:58.972Z,1011.14
2023-05-20T10:32:58.993Z,1011.11
2023-05-20T10:33:58.906Z,1011.12
2023-05-20T10:34:58.882Z,1011.09
2023-05-20T10:35:58.885Z,1011.10
2023-05-20T10:36:58.900Z,1011.15
2023-05-20T10:37:58.878Z,1011.16
2023-05-20T10:38:58.864Z,1011.14
2023-05-20T10:39:58.835Z,1011.11
2023-05-20T10:40:58.812Z,1011.07
2023-05-20T10:41:58.894Z,1011.06
2023-05-20T10:42:58.825Z,1011.05
2023-05-20T10:43:58.786Z,1011.05
2023-05-20T10:44:58.786Z,1011.00
2023-05-20T10:45:58.833Z,1010.98
2023-05-20T10:47:20.533Z,1010.95
2023-05-20T10:48:00.010Z,1010.94
2023-05-20T10:48:58.805Z,1010.90
2023-05-20T10:49:58.706Z,1010.89
2023-05-20T10:50:58.701Z,1010.89
2023-05-20T10:51:58.718Z,1010.87
2023-05-20T10:52:58.699Z,1010.89
2023-05-20T10:53:58.680Z,1010.87
2023-05-20T10:54:58.664Z,1010.84
2023-05-20T10:55:58.642Z,1010.93
2023-05-20T10:56:58.673Z,1010.97
2023-05-20T10:57:58.623Z,1010.90
2023-05-20T10:58:58.620Z,1011.00
2023-05-20T10:59:58.613Z,1010.97
2023-05-20T11:00:58.646Z,1010.94
2023-05-20T11:01:58.650Z,1010.96
2023-05-20T11:02:58.662Z,1010.98
2023-05-20T11:03:58.699Z,1010.95
2023-05-20T11:04:58.616Z,1010.96
2023-05-20T11:05:58.576Z,1011.00
2023-05-20T11:06:58.543Z,1011.01
2023-05-20T11:07:58.504Z,1010.95
2023-05-20T11:08:58.514Z,1010.95
2023-05-20T11:09:58.527Z,1010.94
2023-05-20T11:10:58.641Z,1011.04
2023-05-20T11:11:58.485Z,1010.97
2023-05-20T11:12:58.532Z,1010.96
2023-05-20T11:13:58.453Z,1010.96
2023-05-20T11:14:58.432Z,1010.96
2023-05-20T11:15:58.454Z,1011.01
2023-05-20T11:16:58.495Z,1010.92
2023-05-20T11:17:58.487Z,1010.86
2023-05-20T11:18:58.435Z,1010.88
2023-05-20T11:19:58.405Z,1010.89
2023-05-20T11:20:58.381Z,1010.86
2023-05-20T11:21:58.364Z,1010.86
2023-05-20T11:22:58.334Z,1010.87
2023-05-20T11:23:58.341Z,1010.78
2023-05-20T11:24:58.994Z,1010.79
2023-05-20T11:25:58.348Z,1010.82
2023-05-20T11:26:58.311Z,1010.79
2023-05-20T11:27:58.299Z,1010.84
2023-05-20T11:28:59.295Z,1010.85
2023-05-20T11:29:58.318Z,1010.85
2023-05-20T11:30:58.298Z,1010.85
2023-05-20T11:31:58.547Z,1010.83
2023-05-20T11:32:58.256Z,1010.78
2023-05-20T11:33:58.254Z,1010.83
2023-05-20T11:34:58.252Z,1010.75
2023-05-20T11:35:58.215Z,1010.74
2023-05-20T11:36:58.235Z,1010.74
2023-05-20T11:37:58.185Z,1010.67
2023-05-20T11:38:58.249Z,1010.75
2023-05-20T11:39:58.182Z,1010.73
2023-05-20T11:40:58.406Z,1010.75
2023-05-20T11:41:58.136Z,1010.72
2023-05-20T11:42:58.111Z,1010.73
2023-05-20T11:43:58.129Z,1010.70
2023-05-20T11:44:59.402Z,1010.78
2023-05-20T11:45:58.116Z,1010.77
2023-05-20T11:46:58.085Z,1010.76
2023-05-20T11:47:58.170Z,1010.75
2023-05-20T11:48:58.060Z,1010.77
2023-05-20T11:49:58.073Z,1010.78
2023-05-20T11:50:59.943Z,1010.68
2023-05-20T11:51:58.019Z,1010.69
2023-05-20T11:52:58.012Z,1010.65
2023-05-20T11:53:58.025Z,1010.62
2023-05-20T11:54:58.009Z,1010.52
2023-05-20T11:55:58.005Z,1010.51
2023-05-20T11:56:57.977Z,1010.53
2023-05-20T11:57:57.944Z,1010.57
2023-05-20T11:58:57.964Z,1010.59
2023-05-20T11:59:57.951Z,1010.63
2023-05-20T12:01:05.756Z,1010.63
2023-05-20T12:01:58.928Z,1010.64
2023-05-20T12:02:57.937Z,1010.61
2023-05-20T12:03:58.088Z,1010.66
2023-05-20T12:04:57.925Z,1010.64